Commerce, Oklahoma
Current Conditions -  °F | °C
As of 12:15 PM on Friday 21 Nov 2014 (Local Time) from KGMJ Reporting Station
Overcast Overcast  
Wind Chill: 61°   Ceiling: 1800
Heat Index: 61°   Visibility: 10mi
Dew Point: 50°   Wind: 12mph
Humidity: 68%   Direction: 140°SE
Pressure: 30.15"   Gusts: 17mph
Location:  36.93°N, 94.87°W
Report Text: KGMJ 211815Z AUTO 14010G15KT 10SM OVC018 16/10 A3015 RMK AO2
Loading
Personal Weather Stations






























Interactive Weather Map New forecast layout! Learn more

10-Day Weather Forecast

Advertisements
Track Severe Weather on mobile